createdAt,value
2018-12-18T00:01:44.659Z,47.90
2018-12-18T00:04:14.549Z,47.93
2018-12-18T00:06:59.557Z,42.13
2018-12-18T00:09:28.733Z,47.05
2018-12-18T00:14:51.781Z,44.18
2018-12-18T00:17:25.962Z,41.73
2018-12-18T00:20:00.671Z,43.90
2018-12-18T00:22:34.462Z,46.28
2018-12-18T00:25:02.921Z,43.23
2018-12-18T00:27:32.132Z,46.20
2018-12-18T00:30:00.570Z,48.23
2018-12-18T00:32:32.328Z,42.90
2018-12-18T00:35:00.819Z,45.35
2018-12-18T00:37:29.332Z,41.77
2018-12-18T00:40:05.012Z,46.63
2018-12-18T00:42:33.480Z,44.75
2018-12-18T00:45:19.167Z,45.58
2018-12-18T00:47:47.618Z,45.45
2018-12-18T00:50:16.325Z,44.63
2018-12-18T00:52:45.107Z,48.28
2018-12-18T00:55:17.913Z,46.95
2018-12-18T00:57:46.371Z,43.05
2018-12-18T01:03:13.012Z,46.70
2018-12-18T01:05:46.960Z,41.25
2018-12-18T01:08:21.154Z,45.92
2018-12-18T01:10:49.631Z,41.13
2018-12-18T01:13:18.171Z,43.00
2018-12-18T01:15:46.665Z,42.13
2018-12-18T01:18:16.593Z,41.65
2018-12-18T01:20:58.093Z,45.80
2018-12-18T01:23:30.506Z,40.03
2018-12-18T01:25:58.975Z,44.50
2018-12-18T01:28:31.771Z,42.37
2018-12-18T01:31:00.237Z,44.53
2018-12-18T01:33:28.945Z,39.67
2018-12-18T01:35:57.415Z,40.67
2018-12-18T01:38:25.840Z,37.63
2018-12-18T01:40:54.264Z,42.05
2018-12-18T01:43:22.764Z,36.03
2018-12-18T01:45:51.211Z,37.93
2018-12-18T01:48:19.627Z,41.60
2018-12-18T01:50:48.099Z,39.73
2018-12-18T01:53:16.568Z,42.90
2018-12-18T01:55:45.015Z,38.73
2018-12-18T01:58:13.510Z,40.27
2018-12-18T02:00:41.936Z,37.93
2018-12-18T02:03:10.377Z,40.28
2018-12-18T02:05:38.838Z,43.17
2018-12-18T02:08:07.270Z,38.63
2018-12-18T02:10:37.729Z,38.73
2018-12-18T02:13:06.194Z,36.50
2018-12-18T02:15:34.622Z,44.00
2018-12-18T02:18:03.043Z,37.35
2018-12-18T02:20:31.496Z,44.13
2018-12-18T02:22:59.919Z,38.13
2018-12-18T02:25:28.333Z,33.02
2018-12-18T02:27:56.896Z,40.80
2018-12-18T02:30:25.335Z,35.03
2018-12-18T02:32:53.772Z,35.20
2018-12-18T02:35:22.260Z,34.78
2018-12-18T02:37:51.058Z,34.33
2018-12-18T02:40:19.508Z,35.95
2018-12-18T02:42:48.034Z,34.67
2018-12-18T02:45:16.455Z,34.90
2018-12-18T02:47:44.891Z,35.95
2018-12-18T02:50:13.344Z,36.10
2018-12-18T02:52:41.769Z,36.25
2018-12-18T02:55:10.232Z,43.28
2018-12-18T02:57:38.706Z,38.95
2018-12-18T03:00:07.569Z,41.73
2018-12-18T03:02:36.265Z,41.13
2018-12-18T03:05:05.558Z,36.15
2018-12-18T03:07:33.997Z,37.65
2018-12-18T03:10:02.434Z,35.70
2018-12-18T03:12:30.918Z,36.28
2018-12-18T03:14:59.396Z,32.45
2018-12-18T03:17:27.840Z,32.55
2018-12-18T03:19:56.315Z,36.65
2018-12-18T03:22:24.759Z,38.85
2018-12-18T03:24:53.204Z,37.80
2018-12-18T03:27:21.655Z,41.00
2018-12-18T03:29:50.102Z,47.55
2018-12-18T03:32:19.574Z,45.45
2018-12-18T03:34:48.080Z,44.88
2018-12-18T03:37:16.503Z,46.02
2018-12-18T03:39:44.965Z,48.55
2018-12-18T03:42:13.421Z,45.90
2018-12-18T03:44:41.868Z,43.28
2018-12-18T03:47:10.301Z,46.68
2018-12-18T03:49:38.765Z,44.67
2018-12-18T03:52:07.176Z,42.80
2018-12-18T03:54:36.124Z,45.05
2018-12-18T03:57:04.584Z,46.58
2018-12-18T03:59:33.027Z,48.13
2018-12-18T04:02:01.452Z,47.45
2018-12-18T04:04:35.450Z,47.75
2018-12-18T04:07:00.469Z,58.73
2018-12-18T04:09:28.905Z,67.08
2018-12-18T04:12:03.144Z,67.53
2018-12-18T04:14:31.565Z,63.70
2018-12-18T04:17:00.011Z,70.05
2018-12-18T04:19:28.484Z,61.60
2018-12-18T04:21:56.909Z,57.45
2018-12-18T04:24:25.466Z,75.62
2018-12-18T04:26:54.366Z,64.55
2018-12-18T04:29:22.793Z,61.77
2018-12-18T04:31:51.247Z,57.30
2018-12-18T04:34:19.709Z,58.10
2018-12-18T04:36:48.151Z,55.85
2018-12-18T04:39:16.705Z,58.35
2018-12-18T04:41:45.205Z,55.65
2018-12-18T04:44:13.631Z,55.08
2018-12-18T04:46:42.060Z,56.20
2018-12-18T04:49:10.529Z,59.48
2018-12-18T04:51:39.010Z,60.12
2018-12-18T04:54:07.428Z,57.05
2018-12-18T04:56:35.875Z,53.63
2018-12-18T04:59:04.320Z,52.70
2018-12-18T05:01:32.764Z,55.92
2018-12-18T05:04:01.503Z,56.20
2018-12-18T05:06:29.936Z,61.08
2018-12-18T05:08:58.369Z,59.30
2018-12-18T05:11:26.840Z,57.58
2018-12-18T05:13:55.276Z,53.92
2018-12-18T05:16:23.721Z,69.40
2018-12-18T05:18:52.582Z,56.90
2018-12-18T05:21:21.008Z,55.17
2018-12-18T05:23:49.669Z,55.35
2018-12-18T05:26:18.908Z,56.10
2018-12-18T05:28:47.462Z,52.03
2018-12-18T05:31:15.913Z,57.90
2018-12-18T05:33:44.390Z,62.62
2018-12-18T05:36:12.816Z,64.53
2018-12-18T05:38:41.340Z,81.55
2018-12-18T05:41:09.808Z,62.20
2018-12-18T05:43:38.265Z,59.10
2018-12-18T05:46:07.108Z,58.92
2018-12-18T05:48:36.012Z,56.65
2018-12-18T05:51:04.443Z,63.65
2018-12-18T05:53:32.900Z,63.30
2018-12-18T05:56:01.799Z,55.90
2018-12-18T05:58:30.221Z,60.35
2018-12-18T06:00:58.654Z,66.55
2018-12-18T06:03:27.131Z,64.05
2018-12-18T06:05:55.556Z,56.48
2018-12-18T06:08:24.548Z,61.83
2018-12-18T06:10:53.026Z,57.40
2018-12-18T06:13:21.681Z,59.38
2018-12-18T06:15:50.108Z,56.42
2018-12-18T06:18:18.572Z,59.08
2018-12-18T06:20:47.611Z,59.58
2018-12-18T06:23:16.469Z,59.73
2018-12-18T06:25:44.920Z,61.60
2018-12-18T06:28:13.457Z,62.05
2018-12-18T06:30:41.923Z,56.80
2018-12-18T06:33:11.737Z,56.75
2018-12-18T06:35:47.827Z,55.83
2018-12-18T06:38:41.024Z,56.20
2018-12-18T06:41:18.049Z,56.75
2018-12-18T06:43:47.796Z,55.67
2018-12-18T06:46:17.041Z,60.25
2018-12-18T06:48:46.124Z,60.00
2018-12-18T06:51:14.608Z,62.67
2018-12-18T06:53:43.440Z,66.85
2018-12-18T06:56:11.848Z,63.80
2018-12-18T06:58:40.331Z,63.63
2018-12-18T07:01:20.918Z,71.07
2018-12-18T07:03:50.646Z,91.60
2018-12-18T07:06:19.055Z,82.20
2018-12-18T07:08:50.186Z,69.07
2018-12-18T07:11:35.785Z,72.60
2018-12-18T07:14:06.296Z,63.50
2018-12-18T07:16:34.759Z,68.33
2018-12-18T07:19:04.520Z,67.05
2018-12-18T07:21:36.675Z,78.80
2018-12-18T07:24:05.922Z,75.28
2018-12-18T07:26:35.217Z,70.03
2018-12-18T07:29:03.708Z,70.23
2018-12-18T07:31:49.005Z,66.62
2018-12-18T07:34:24.268Z,67.58
2018-12-18T07:36:58.102Z,72.90
2018-12-18T07:39:27.028Z,122.47
2018-12-18T07:42:02.068Z,83.70
2018-12-18T07:44:30.566Z,70.43
2018-12-18T07:46:59.869Z,69.50
2018-12-18T07:49:28.368Z,77.07
2018-12-18T07:51:56.873Z,67.17
2018-12-18T07:54:25.284Z,62.97
2018-12-18T07:56:53.740Z,64.90
2018-12-18T07:59:22.251Z,70.30
2018-12-18T08:01:51.331Z,72.67
2018-12-18T08:04:25.188Z,60.57
2018-12-18T08:06:53.647Z,68.30
2018-12-18T08:09:22.157Z,66.13
2018-12-18T08:11:53.511Z,66.77
2018-12-18T08:14:22.181Z,65.63
2018-12-18T08:16:51.053Z,177.50
2018-12-18T08:19:20.568Z,68.57
2018-12-18T08:21:49.658Z,57.77
2018-12-18T08:24:18.595Z,64.40
2018-12-18T08:26:47.077Z,61.77
2018-12-18T08:29:15.528Z,62.53
2018-12-18T08:31:43.984Z,57.73
2018-12-18T08:34:13.297Z,63.53
2018-12-18T08:36:41.741Z,57.87
2018-12-18T08:39:10.279Z,61.23
2018-12-18T08:41:38.773Z,58.47
2018-12-18T08:44:07.607Z,55.97
2018-12-18T08:46:36.052Z,54.30
2018-12-18T08:49:04.520Z,52.67
2018-12-18T08:51:32.977Z,50.97
2018-12-18T08:54:01.444Z,53.97
2018-12-18T08:56:30.205Z,51.53
2018-12-18T08:58:58.688Z,56.27
2018-12-18T09:01:27.128Z,54.40
2018-12-18T09:03:55.657Z,55.90
2018-12-18T09:06:24.083Z,53.53
2018-12-18T09:08:52.520Z,61.03
2018-12-18T09:11:21.012Z,56.53
2018-12-18T09:13:49.484Z,58.53
2018-12-18T09:19:18.591Z,61.47
2018-12-18T09:21:47.077Z,62.53
2018-12-18T09:24:15.507Z,94.03
2018-12-18T09:26:43.911Z,64.60
2018-12-18T09:29:12.371Z,62.87
2018-12-18T09:31:40.816Z,67.33
2018-12-18T09:34:09.260Z,60.23
2018-12-18T09:36:37.762Z,62.77
2018-12-18T09:39:12.289Z,97.53
2018-12-18T09:41:40.930Z,60.47
2018-12-18T09:44:11.417Z,58.17
2018-12-18T09:46:40.031Z,57.30
2018-12-18T09:49:08.523Z,57.77
2018-12-18T09:51:36.982Z,55.70
2018-12-18T09:54:05.440Z,56.27
2018-12-18T09:56:35.968Z,52.50
2018-12-18T09:59:04.636Z,51.10
2018-12-18T10:01:33.145Z,59.30
2018-12-18T10:04:01.645Z,55.77
2018-12-18T10:06:30.084Z,53.13
2018-12-18T10:08:58.539Z,57.67
2018-12-18T10:11:27.008Z,54.63
2018-12-18T10:13:55.451Z,46.83
2018-12-18T10:16:23.968Z,52.27
2018-12-18T10:18:52.433Z,53.63
2018-12-18T10:21:20.895Z,46.73
2018-12-18T10:23:49.347Z,43.20
2018-12-18T10:26:17.942Z,46.40
2018-12-18T10:28:46.388Z,47.77
2018-12-18T10:31:14.843Z,47.63
2018-12-18T10:33:43.380Z,49.90
2018-12-18T10:36:11.811Z,42.13
2018-12-18T10:38:40.276Z,46.40
2018-12-18T10:41:08.760Z,46.07
2018-12-18T10:43:37.264Z,40.10
2018-12-18T10:46:05.716Z,46.33
2018-12-18T10:48:34.199Z,46.17
2018-12-18T10:51:02.659Z,42.10
2018-12-18T10:53:31.086Z,41.53
2018-12-18T10:55:59.947Z,47.53
2018-12-18T10:58:28.379Z,42.47
2018-12-18T11:01:02.519Z,44.13
2018-12-18T11:03:30.964Z,42.87
2018-12-18T11:05:59.415Z,39.17
2018-12-18T11:08:28.020Z,41.30
2018-12-18T11:10:56.548Z,39.30
2018-12-18T11:13:25.034Z,43.40
2018-12-18T11:15:54.014Z,42.30
2018-12-18T11:18:22.463Z,39.07
2018-12-18T11:20:50.914Z,39.33
2018-12-18T11:23:19.814Z,38.30
2018-12-18T11:25:48.515Z,37.87
2018-12-18T11:28:17.060Z,35.00
2018-12-18T11:30:45.552Z,37.77
2018-12-18T11:33:13.996Z,35.20
2018-12-18T11:35:42.417Z,32.87
2018-12-18T11:38:10.885Z,36.37
2018-12-18T11:40:39.305Z,33.70
2018-12-18T11:43:07.767Z,34.33
2018-12-18T11:45:36.303Z,32.67
2018-12-18T11:48:04.735Z,32.87
2018-12-18T11:50:33.172Z,38.77
2018-12-18T11:53:02.063Z,41.90
2018-12-18T11:55:30.487Z,32.67
2018-12-18T11:57:58.915Z,36.80
2018-12-18T12:00:27.420Z,39.33
2018-12-18T12:02:55.860Z,28.53
2018-12-18T12:05:24.317Z,49.53
2018-12-18T12:07:52.804Z,48.67
2018-12-18T12:10:21.257Z,50.83
2018-12-18T12:12:49.723Z,51.00
2018-12-18T12:15:18.179Z,51.07
2018-12-18T12:17:46.745Z,48.90
2018-12-18T12:20:15.175Z,56.67
2018-12-18T12:22:43.624Z,52.10
2018-12-18T12:25:12.109Z,50.17
2018-12-18T12:27:46.120Z,50.30
2018-12-18T12:30:15.216Z,47.20
2018-12-18T12:32:43.636Z,43.87
2018-12-18T12:35:12.146Z,51.50
2018-12-18T12:37:40.590Z,44.70
2018-12-18T12:40:09.132Z,48.20
2018-12-18T12:42:37.616Z,41.50
2018-12-18T12:45:06.390Z,44.63
2018-12-18T12:47:34.822Z,41.63
2018-12-18T12:50:05.097Z,41.07
2018-12-18T12:52:33.529Z,45.63
2018-12-18T12:55:01.994Z,36.20
2018-12-18T12:57:30.978Z,39.03
2018-12-18T12:59:59.827Z,47.33
2018-12-18T13:02:28.267Z,38.80
2018-12-18T13:04:56.752Z,36.93
2018-12-18T13:07:26.187Z,35.47
2018-12-18T13:09:54.645Z,36.70
2018-12-18T13:12:23.116Z,36.40
2018-12-18T13:14:51.555Z,35.13
2018-12-18T13:17:20.010Z,34.03
2018-12-18T13:19:48.501Z,38.73
2018-12-18T13:22:16.927Z,32.57
2018-12-18T13:24:45.346Z,33.53
2018-12-18T13:27:14.124Z,35.53
2018-12-18T13:29:43.051Z,35.27
2018-12-18T13:32:11.497Z,35.07
2018-12-18T13:34:40.000Z,39.20
2018-12-18T13:37:08.680Z,32.97
2018-12-18T13:39:37.119Z,36.43
2018-12-18T13:42:05.593Z,35.47
2018-12-18T13:44:34.060Z,36.77
2018-12-18T13:47:02.479Z,32.93
2018-12-18T13:49:30.976Z,33.00
2018-12-18T13:51:59.398Z,36.10
2018-12-18T13:54:27.851Z,36.17
2018-12-18T13:56:56.323Z,33.07
2018-12-18T13:59:24.756Z,36.70
2018-12-18T14:01:53.151Z,37.73
2018-12-18T14:04:21.631Z,31.60
2018-12-18T14:06:50.083Z,32.10
2018-12-18T14:09:18.577Z,28.70
2018-12-18T14:11:47.058Z,30.93
2018-12-18T14:14:15.516Z,30.30
2018-12-18T14:16:43.971Z,30.03
2018-12-18T14:19:13.078Z,28.67
2018-12-18T14:21:41.530Z,30.70
2018-12-18T14:24:09.976Z,34.57
2018-12-18T14:26:38.915Z,30.63
2018-12-18T14:29:07.355Z,33.77
2018-12-18T14:31:35.775Z,30.90
2018-12-18T14:34:04.249Z,33.30
2018-12-18T14:36:32.668Z,32.47
2018-12-18T14:39:01.097Z,37.23
2018-12-18T14:41:29.573Z,33.50
2018-12-18T14:43:58.025Z,35.53
2018-12-18T14:46:26.468Z,34.50
2018-12-18T14:48:54.964Z,34.47
2018-12-18T14:51:23.708Z,33.27
2018-12-18T14:53:52.220Z,47.70
2018-12-18T14:56:21.598Z,40.23
2018-12-18T14:58:50.048Z,40.53
2018-12-18T15:01:18.460Z,33.77
2018-12-18T15:03:46.945Z,38.80
2018-12-18T15:06:15.756Z,37.13
2018-12-18T15:08:44.206Z,32.70
2018-12-18T15:11:12.679Z,31.50
2018-12-18T15:13:41.176Z,33.53
2018-12-18T15:16:09.747Z,34.60
2018-12-18T15:18:38.228Z,34.13
2018-12-18T15:21:06.675Z,31.77
2018-12-18T15:23:35.256Z,37.53
2018-12-18T15:26:03.746Z,37.87
2018-12-18T15:28:32.204Z,38.00
2018-12-18T15:31:00.647Z,37.87
2018-12-18T15:33:29.141Z,34.03
2018-12-18T15:35:57.856Z,30.13
2018-12-18T15:38:26.368Z,39.27
2018-12-18T15:40:54.853Z,58.80
2018-12-18T15:43:23.376Z,48.00
2018-12-18T15:45:52.033Z,50.57
2018-12-18T15:48:20.644Z,51.07
2018-12-18T15:50:49.146Z,42.30
2018-12-18T15:53:17.605Z,42.00
2018-12-18T15:55:46.136Z,50.47
2018-12-18T15:58:14.688Z,46.57
2018-12-18T16:00:43.150Z,46.10
2018-12-18T16:03:11.737Z,48.37
2018-12-18T16:05:40.230Z,44.40
2018-12-18T16:08:08.784Z,43.33
2018-12-18T16:10:37.317Z,47.23
2018-12-18T16:13:05.849Z,42.60
2018-12-18T16:15:34.356Z,44.27
2018-12-18T16:18:02.969Z,44.60
2018-12-18T16:20:31.488Z,42.10
2018-12-18T16:22:59.986Z,46.43
2018-12-18T16:25:28.604Z,50.90
2018-12-18T16:27:57.287Z,46.23
2018-12-18T16:30:25.787Z,50.53
2018-12-18T16:32:54.271Z,48.30
2018-12-18T16:35:22.845Z,43.23
2018-12-18T16:37:51.391Z,45.93
2018-12-18T16:40:19.938Z,47.17
2018-12-18T16:42:48.496Z,49.33
2018-12-18T16:45:17.145Z,48.77
2018-12-18T16:47:45.675Z,48.60
2018-12-18T16:50:14.278Z,42.17
2018-12-18T16:52:42.879Z,49.73
2018-12-18T16:55:11.439Z,44.23
2018-12-18T16:57:39.948Z,43.93
2018-12-18T17:00:09.328Z,42.70
2018-12-18T17:02:38.158Z,42.80
2018-12-18T17:05:07.135Z,43.80
2018-12-18T17:07:35.739Z,42.27
2018-12-18T17:10:04.735Z,41.80
2018-12-18T17:12:33.287Z,39.53
2018-12-18T17:15:01.801Z,41.50
2018-12-18T17:17:30.397Z,42.10
2018-12-18T17:19:59.057Z,44.40
2018-12-18T17:22:27.596Z,35.67
2018-12-18T17:24:56.257Z,35.13
2018-12-18T17:27:24.808Z,40.90
2018-12-18T17:29:53.430Z,44.50
2018-12-18T17:32:21.991Z,132.57
2018-12-18T17:34:50.552Z,49.57
2018-12-18T17:37:20.001Z,39.70
2018-12-18T17:39:48.667Z,32.97
2018-12-18T17:42:17.184Z,37.10
2018-12-18T17:44:45.732Z,38.33
2018-12-18T17:47:14.356Z,37.07
2018-12-18T17:49:43.212Z,41.13
2018-12-18T17:52:11.792Z,38.97
2018-12-18T17:54:40.345Z,41.93
2018-12-18T17:57:08.865Z,49.33
2018-12-18T17:59:37.515Z,44.63
2018-12-18T18:02:07.211Z,44.20
2018-12-18T18:04:35.883Z,49.03
2018-12-18T18:07:04.380Z,47.93
2018-12-18T18:09:33.014Z,43.67
2018-12-18T18:12:01.542Z,39.63
2018-12-18T18:14:30.147Z,38.47
2018-12-18T18:16:58.786Z,43.10
2018-12-18T18:19:27.432Z,46.43
2018-12-18T18:21:55.983Z,41.33
2018-12-18T18:24:24.645Z,44.13
2018-12-18T18:26:53.306Z,47.13
2018-12-18T18:29:21.858Z,47.70
2018-12-18T18:31:50.517Z,49.03
2018-12-18T18:34:19.037Z,49.87
2018-12-18T18:36:47.582Z,49.97
2018-12-18T18:39:16.110Z,46.27
2018-12-18T18:41:44.735Z,49.50
2018-12-18T18:44:13.306Z,45.23
2018-12-18T18:46:41.943Z,47.97
2018-12-18T18:49:11.290Z,45.47
2018-12-18T18:51:40.155Z,43.13
2018-12-18T18:54:08.717Z,65.00
2018-12-18T18:56:38.320Z,64.90
2018-12-18T18:59:07.701Z,47.43
2018-12-18T19:01:36.327Z,43.43
2018-12-18T19:04:05.007Z,42.77
2018-12-18T19:06:33.806Z,50.57
2018-12-18T19:09:03.421Z,47.17
2018-12-18T19:11:33.775Z,49.83
2018-12-18T19:14:02.730Z,50.13
2018-12-18T19:16:31.368Z,50.80
2018-12-18T19:18:59.996Z,64.43
2018-12-18T19:21:28.612Z,57.67
2018-12-18T19:23:57.208Z,54.33
2018-12-18T19:26:26.501Z,55.67
2018-12-18T19:28:55.105Z,51.87
2018-12-18T19:31:24.148Z,49.90
2018-12-18T19:33:53.794Z,46.80
2018-12-18T19:36:22.469Z,48.07
2018-12-18T19:38:52.156Z,50.17
2018-12-18T19:41:21.152Z,47.47
2018-12-18T19:43:49.811Z,47.67
2018-12-18T19:46:18.495Z,52.20
2018-12-18T19:48:47.319Z,48.67
2018-12-18T19:51:16.438Z,51.20
2018-12-18T19:53:45.716Z,49.90
2018-12-18T19:56:14.316Z,49.93
2018-12-18T19:58:42.986Z,49.33
2018-12-18T20:01:11.626Z,49.50
2018-12-18T20:03:40.214Z,48.33
2018-12-18T20:06:09.842Z,45.97
2018-12-18T20:08:38.560Z,44.63
2018-12-18T20:11:07.264Z,51.20
2018-12-18T20:13:36.616Z,48.03
2018-12-18T20:16:06.234Z,46.90
2018-12-18T20:18:34.877Z,47.30
2018-12-18T20:21:04.323Z,47.33
2018-12-18T20:23:32.989Z,44.03
2018-12-18T20:26:02.014Z,43.17
2018-12-18T20:28:30.633Z,48.63
2018-12-18T20:31:00.955Z,75.20
2018-12-18T20:33:29.661Z,50.70
2018-12-18T20:35:58.860Z,43.17
2018-12-18T20:38:27.942Z,44.53
2018-12-18T20:40:56.936Z,43.87
2018-12-18T20:43:26.198Z,45.27
2018-12-18T20:45:55.363Z,48.87
2018-12-18T20:48:24.576Z,47.67
2018-12-18T20:50:53.199Z,51.77
2018-12-18T20:53:21.807Z,48.57
2018-12-18T20:55:51.794Z,47.77
2018-12-18T20:58:20.652Z,54.43
2018-12-18T21:00:49.276Z,51.63
2018-12-18T21:03:18.692Z,52.90
2018-12-18T21:05:47.289Z,56.90
2018-12-18T21:08:15.872Z,65.50
2018-12-18T21:10:44.531Z,62.40
2018-12-18T21:13:20.826Z,67.60
2018-12-18T21:15:49.398Z,69.07
2018-12-18T21:18:18.051Z,65.30
2018-12-18T21:20:47.185Z,61.30
2018-12-18T21:23:15.740Z,63.87
2018-12-18T21:25:44.441Z,59.47
2018-12-18T21:28:13.177Z,64.73
2018-12-18T21:30:41.774Z,61.97
2018-12-18T21:33:10.284Z,64.63
2018-12-18T21:35:38.988Z,68.33
2018-12-18T21:38:07.680Z,59.60
2018-12-18T21:40:36.408Z,58.73
2018-12-18T21:43:05.415Z,54.43
2018-12-18T21:45:33.940Z,59.33
2018-12-18T21:48:02.612Z,59.07
2018-12-18T21:50:31.188Z,60.67
2018-12-18T21:52:59.713Z,60.30
2018-12-18T21:55:28.233Z,60.37
2018-12-18T21:57:56.786Z,65.47
2018-12-18T22:00:25.260Z,66.97
2018-12-18T22:02:53.770Z,65.57
2018-12-18T22:05:22.269Z,65.80
2018-12-18T22:07:50.750Z,63.57
2018-12-18T22:10:19.264Z,64.50
2018-12-18T22:12:47.777Z,69.17
2018-12-18T22:15:17.316Z,67.80
2018-12-18T22:17:45.760Z,69.27
2018-12-18T22:20:14.231Z,67.07
2018-12-18T22:22:42.636Z,66.93
2018-12-18T22:25:11.081Z,68.37
2018-12-18T22:27:39.547Z,68.30
2018-12-18T22:30:07.996Z,66.57
2018-12-18T22:32:36.458Z,64.33
2018-12-18T22:35:04.940Z,64.47
2018-12-18T22:37:33.384Z,69.30
2018-12-18T22:40:01.797Z,68.57
2018-12-18T22:42:30.263Z,60.83
2018-12-18T22:44:58.712Z,64.07
2018-12-18T22:47:27.140Z,64.10
2018-12-18T22:49:55.585Z,64.67
2018-12-18T22:52:24.005Z,60.93
2018-12-18T22:54:52.903Z,59.10
2018-12-18T22:57:21.428Z,57.40
2018-12-18T22:59:50.104Z,55.00
2018-12-18T23:02:18.543Z,62.37
2018-12-18T23:04:47.300Z,59.80
2018-12-18T23:07:15.762Z,61.67
2018-12-18T23:09:44.213Z,61.93
2018-12-18T23:12:12.633Z,62.60
2018-12-18T23:14:41.093Z,62.83
2018-12-18T23:17:09.541Z,63.40
2018-12-18T23:19:37.964Z,61.13
2018-12-18T23:22:06.446Z,62.30
2018-12-18T23:24:34.883Z,62.43
2018-12-18T23:27:03.325Z,64.20
2018-12-18T23:29:31.786Z,63.00
2018-12-18T23:32:00.222Z,60.43
2018-12-18T23:34:33.006Z,64.07
2018-12-18T23:36:59.181Z,57.03
2018-12-18T23:39:27.667Z,57.67
2018-12-18T23:41:56.376Z,59.67
2018-12-18T23:44:24.990Z,57.67
2018-12-18T23:46:53.428Z,59.13
2018-12-18T23:49:21.860Z,54.43
2018-12-18T23:51:50.323Z,57.30
2018-12-18T23:54:18.720Z,51.17
2018-12-18T23:56:47.138Z,52.47
2018-12-18T23:59:15.595Z,54.00
